Time;durP1;ratioP1;P1;durP2;ratioP2;P2;SDS_P1;SDS_P2;PMS_P1;PMS_P2;Temp;Humidity;BMP_temperature;BMP_pressure;BME280_temperature;BME280_humidity;BME280_pressure;Samples;Min_cycle;Max_cycle;Signal;HPM_P1;HPM_P2
2022/10/21 00:02:08;;;;;;;9.52;5.68;;;11.50;95.10;;;;;;4908852;29;20063;-73
2022/10/21 00:04:33;;;;;;;7.13;4.97;;;11.50;95.30;;;;;;4910907;29;20023;-73
2022/10/21 00:07:00;;;;;;;8.32;5.30;;;11.50;95.30;;;;;;4921042;29;20032;-73
2022/10/21 00:09:25;;;;;;;10.55;5.35;;;11.40;95.30;;;;;;4911416;29;20039;-73
2022/10/21 00:11:51;;;;;;;8.45;5.28;;;11.50;95.10;;;;;;4905593;29;20039;-73
2022/10/21 00:14:18;;;;;;;10.23;5.72;;;11.50;95.10;;;;;;4911213;29;20103;-73
2022/10/21 00:16:44;;;;;;;10.55;5.75;;;11.40;95.10;;;;;;4905921;29;20040;-72
2022/10/21 00:19:10;;;;;;;9.20;5.18;;;11.50;95.20;;;;;;4922450;29;20067;-67
2022/10/21 00:21:36;;;;;;;10.02;5.03;;;11.50;95.10;;;;;;4912796;29;20036;-65
2022/10/21 00:24:02;;;;;;;7.43;5.03;;;11.50;95.20;;;;;;4908038;29;20046;-66
2022/10/21 00:26:28;;;;;;;8.73;5.35;;;11.50;95.30;;;;;;4912460;29;20036;-68
2022/10/21 00:28:57;;;;;;;9.15;5.32;;;11.50;95.40;;;;;;4917148;29;20036;-68
2022/10/21 00:31:24;;;;;;;9.73;5.80;;;11.60;95.30;;;;;;4913440;29;20489;-66
2022/10/21 00:33:50;;;;;;;9.63;5.22;;;11.60;95.40;;;;;;4913607;29;20034;-68
2022/10/21 00:36:16;;;;;;;9.07;5.32;;;11.60;95.40;;;;;;4915318;29;20425;-68
2022/10/21 00:38:44;;;;;;;8.85;5.55;;;11.60;95.70;;;;;;4911389;29;20036;-66
2022/10/21 00:41:10;;;;;;;7.30;4.78;;;11.50;95.50;;;;;;4916944;29;20032;-68
2022/10/21 00:44:13;;;;;;;7.65;5.15;;;11.50;95.50;;;;;;4917723;29;20032;-74
2022/10/21 00:46:54;;;;;;;8.38;5.75;;;11.50;95.60;;;;;;4876560;29;20056;-68
2022/10/21 00:49:27;;;;;;;6.82;4.78;;;11.60;95.60;;;;;;4912594;29;20102;-74
2022/10/21 00:51:58;;;;;;;7.63;4.47;;;11.60;95.50;;;;;;4917044;29;20024;-73
2022/10/21 00:54:25;;;;;;;8.68;5.40;;;11.60;95.60;;;;;;4911655;29;20046;-73
2022/10/21 00:56:53;;;;;;;8.15;5.32;;;11.60;95.60;;;;;;4915567;29;20028;-74
2022/10/21 00:59:21;;;;;;;6.88;4.80;;;11.60;95.70;;;;;;4914623;29;20070;-73
2022/10/21 01:01:48;;;;;;;7.95;5.32;;;11.70;95.70;;;;;;4914620;29;20036;-73
2022/10/21 01:04:14;;;;;;;8.50;5.53;;;11.60;95.60;;;;;;4919542;29;20735;-75
2022/10/21 01:06:41;;;;;;;8.23;5.47;;;11.60;95.80;;;;;;4936277;29;20039;-73
2022/10/21 01:09:07;;;;;;;7.10;5.10;;;11.60;95.80;;;;;;4909381;29;20044;-73
2022/10/21 01:11:43;;;;;;;8.00;5.10;;;11.60;95.90;;;;;;4915476;29;20036;-73
2022/10/21 01:14:09;;;;;;;9.07;5.57;;;11.60;95.90;;;;;;4911300;29;20036;-74
2022/10/21 01:16:58;;;;;;;9.88;5.43;;;11.50;95.90;;;;;;4910746;29;20035;-73
2022/10/21 01:19:52;;;;;;;8.25;5.57;;;11.50;96.00;;;;;;4917947;29;20497;-73
2022/10/21 01:22:41;;;;;;;11.52;5.30;;;11.50;96.00;;;;;;4913970;29;20094;-73
2022/10/21 01:25:39;;;;;;;8.10;5.63;;;11.60;96.00;;;;;;4912241;29;20627;-67
2022/10/21 01:28:43;;;;;;;10.40;5.50;;;11.60;95.90;;;;;;4933135;29;20564;-67
2022/10/21 01:31:19;;;;;;;10.23;6.28;;;11.50;96.00;;;;;;4910739;29;20059;-73
2022/10/21 01:34:01;;;;;;;9.40;5.47;;;11.50;96.00;;;;;;4916901;29;20036;-73
2022/10/21 01:36:51;;;;;;;8.93;5.28;;;11.50;96.00;;;;;;4915300;29;20036;-68
2022/10/21 01:39:37;;;;;;;7.32;4.97;;;11.50;96.10;;;;;;4916031;29;20046;-68
2022/10/21 01:42:12;;;;;;;6.85;5.25;;;11.60;96.20;;;;;;4918100;29;20047;-73
2022/10/21 01:45:01;;;;;;;8.32;5.88;;;11.60;96.20;;;;;;4914709;29;20731;-73
2022/10/21 01:47:39;;;;;;;7.28;5.00;;;11.60;96.20;;;;;;4913788;29;20766;-73
2022/10/21 01:50:15;;;;;;;9.25;5.72;;;11.60;96.20;;;;;;4915878;29;20040;-73
2022/10/21 01:52:46;;;;;;;6.40;4.57;;;11.60;96.20;;;;;;4908316;29;20095;-73
2022/10/21 01:55:17;;;;;;;8.88;5.35;;;11.60;96.20;;;;;;4915523;29;20147;-73
2022/10/21 01:57:49;;;;;;;10.75;5.53;;;11.60;96.20;;;;;;4913067;29;20028;-73
2022/10/21 02:00:15;;;;;;;8.00;5.57;;;11.60;96.20;;;;;;4908263;29;20028;-67
2022/10/21 02:02:46;;;;;;;8.98;5.38;;;11.60;96.20;;;;;;4932898;29;20042;-67
2022/10/21 02:05:24;;;;;;;8.32;5.50;;;11.60;96.20;;;;;;4913677;29;20044;-68
2022/10/21 02:07:50;;;;;;;9.05;5.63;;;11.60;96.30;;;;;;4909667;29;20175;-68
2022/10/21 02:10:17;;;;;;;8.73;5.78;;;11.70;96.30;;;;;;4915358;29;20219;-68
2022/10/21 02:12:46;;;;;;;8.77;4.78;;;11.70;96.30;;;;;;4911429;29;20039;-68
2022/10/21 02:15:14;;;;;;;8.52;5.35;;;11.70;96.30;;;;;;4910344;29;20228;-67
2022/10/21 02:17:45;;;;;;;9.38;5.50;;;11.70;96.30;;;;;;4916237;29;20056;-67
2022/10/21 02:20:14;;;;;;;8.13;5.57;;;11.70;96.20;;;;;;4918912;29;20281;-68
2022/10/21 02:22:42;;;;;;;13.30;6.38;;;11.80;96.20;;;;;;4910316;29;20042;-68
2022/10/21 02:25:19;;;;;;;9.05;5.07;;;11.80;96.00;;;;;;4914806;29;20143;-73
2022/10/21 02:27:46;;;;;;;10.85;5.53;;;11.80;96.00;;;;;;4910584;29;20545;-73
2022/10/21 02:30:12;;;;;;;11.35;6.15;;;11.80;95.90;;;;;;4915335;29;20498;-73
2022/10/21 02:32:56;;;;;;;6.97;4.85;;;11.80;95.90;;;;;;4914768;29;20823;-67
2022/10/21 02:35:21;;;;;;;9.63;5.95;;;11.80;95.90;;;;;;4908093;29;20036;-68
2022/10/21 02:38:19;;;;;;;9.70;5.28;;;11.70;96.00;;;;;;4914154;29;20651;-67
2022/10/21 02:40:59;;;;;;;9.07;5.13;;;11.80;96.10;;;;;;4907950;29;20055;-73
2022/10/21 02:43:33;;;;;;;8.63;5.03;;;11.80;96.00;;;;;;4908020;29;20047;-73
2022/10/21 02:46:04;;;;;;;7.78;5.47;;;11.80;96.00;;;;;;4911634;29;20043;-74
2022/10/21 02:48:32;;;;;;;9.80;5.82;;;11.80;96.00;;;;;;4911257;29;20059;-73
2022/10/21 02:50:59;;;;;;;8.63;4.85;;;11.80;95.90;;;;;;4908313;29;20044;-73
2022/10/21 02:53:25;;;;;;;9.02;5.40;;;11.80;96.00;;;;;;4913704;29;20023;-73
2022/10/21 02:55:50;;;;;;;8.98;5.35;;;11.80;95.90;;;;;;4911345;29;20667;-73
2022/10/21 02:58:16;;;;;;;7.65;5.07;;;11.80;95.90;;;;;;4920213;29;20706;-73
2022/10/21 03:00:42;;;;;;;6.93;5.35;;;11.80;95.90;;;;;;4914681;29;20027;-73
2022/10/21 03:03:07;;;;;;;8.80;5.10;;;11.90;95.90;;;;;;4912475;29;20024;-73
2022/10/21 03:05:33;;;;;;;7.38;5.13;;;11.90;95.90;;;;;;4907677;29;20028;-73
2022/10/21 03:07:59;;;;;;;7.53;4.90;;;11.90;96.00;;;;;;4911005;29;20845;-73
2022/10/21 03:10:25;;;;;;;9.10;6.00;;;11.90;95.90;;;;;;4914333;29;20034;-73
2022/10/21 03:12:50;;;;;;;7.57;5.53;;;11.90;96.00;;;;;;4907100;29;20501;-72
2022/10/21 03:15:16;;;;;;;7.75;5.30;;;11.90;95.90;;;;;;4915761;29;20036;-73
2022/10/21 03:17:42;;;;;;;7.00;5.13;;;11.90;96.00;;;;;;4918553;29;20734;-73
2022/10/21 03:20:08;;;;;;;7.35;5.22;;;11.90;96.00;;;;;;4907500;29;20082;-73
2022/10/21 03:22:34;;;;;;;6.25;5.05;;;11.90;96.00;;;;;;4912937;29;20032;-73
2022/10/21 03:25:00;;;;;;;8.65;5.13;;;11.90;96.10;;;;;;4910173;29;20035;-72
2022/10/21 03:27:26;;;;;;;8.60;4.75;;;11.80;96.10;;;;;;4909025;29;20036;-72
2022/10/21 03:29:52;;;;;;;7.03;4.93;;;11.80;96.10;;;;;;4916228;29;20043;-72
2022/10/21 03:32:17;;;;;;;6.88;5.22;;;11.90;96.20;;;;;;4910593;29;20035;-72
2022/10/21 03:34:43;;;;;;;9.65;5.63;;;11.90;96.20;;;;;;4910313;29;20031;-72
2022/10/21 03:37:09;;;;;;;6.38;4.40;;;11.90;96.10;;;;;;4915272;29;20075;-72
2022/10/21 03:39:35;;;;;;;9.02;5.15;;;11.90;96.10;;;;;;4914783;29;20123;-72
2022/10/21 03:42:00;;;;;;;8.50;5.15;;;11.90;96.20;;;;;;4907321;29;20074;-67
2022/10/21 03:44:26;;;;;;;8.00;5.72;;;11.90;96.10;;;;;;4911648;29;20123;-72
2022/10/21 03:46:52;;;;;;;9.32;5.63;;;11.80;96.10;;;;;;4910123;29;20027;-72
2022/10/21 03:49:18;;;;;;;8.82;5.50;;;11.80;96.20;;;;;;4908772;29;21067;-72
2022/10/21 03:51:43;;;;;;;10.95;6.15;;;11.80;96.20;;;;;;4915943;29;20035;-72
2022/10/21 03:54:09;;;;;;;8.75;6.10;;;11.80;96.10;;;;;;4915720;29;20039;-73
2022/10/21 03:56:35;;;;;;;8.60;5.95;;;11.80;96.00;;;;;;4911850;29;20095;-67
2022/10/21 03:59:00;;;;;;;7.85;5.60;;;11.80;96.10;;;;;;4912726;29;20040;-67
2022/10/21 04:01:26;;;;;;;8.52;5.75;;;11.80;96.20;;;;;;4911851;29;20036;-71
2022/10/21 04:03:52;;;;;;;8.52;5.85;;;11.70;96.10;;;;;;4908746;29;20082;-72
2022/10/21 04:06:18;;;;;;;11.88;6.30;;;11.70;96.20;;;;;;4912232;29;20036;-73
2022/10/21 04:08:44;;;;;;;7.72;5.80;;;11.70;96.20;;;;;;4910425;29;20032;-72
2022/10/21 04:11:10;;;;;;;8.15;5.65;;;11.60;96.30;;;;;;4914292;29;20118;-73
2022/10/21 04:13:35;;;;;;;9.43;6.22;;;11.60;96.40;;;;;;4914850;29;20428;-72
2022/10/21 04:16:04;;;;;;;10.02;6.32;;;11.60;96.20;;;;;;4917524;29;20110;-72
2022/10/21 04:18:30;;;;;;;10.70;6.93;;;11.60;96.20;;;;;;4918801;29;20477;-73
2022/10/21 04:20:55;;;;;;;8.70;5.85;;;11.60;96.20;;;;;;4914740;29;20036;-72
2022/10/21 04:23:21;;;;;;;10.05;6.60;;;11.50;96.20;;;;;;4912990;29;20036;-72
2022/10/21 04:25:47;;;;;;;9.50;6.13;;;11.50;96.30;;;;;;4907459;29;20031;-72
2022/10/21 04:28:13;;;;;;;11.55;6.32;;;11.60;96.20;;;;;;4915550;29;20087;-72
2022/10/21 04:30:39;;;;;;;11.38;6.95;;;11.50;96.10;;;;;;4913502;29;20036;-71
2022/10/21 04:33:05;;;;;;;10.13;6.35;;;11.60;96.10;;;;;;4909534;29;20055;-72
2022/10/21 04:35:30;;;;;;;8.32;6.55;;;11.60;96.00;;;;;;4912853;29;20039;-73
2022/10/21 04:37:56;;;;;;;10.07;7.05;;;11.60;96.00;;;;;;4914435;29;20044;-72
2022/10/21 04:40:22;;;;;;;9.00;6.22;;;11.60;96.10;;;;;;4908646;29;20035;-72
2022/10/21 04:42:49;;;;;;;9.38;6.63;;;11.60;96.10;;;;;;4922981;29;20074;-73
2022/10/21 04:45:16;;;;;;;16.40;7.80;;;11.60;96.10;;;;;;4920814;29;20031;-72
2022/10/21 04:47:42;;;;;;;9.85;7.00;;;11.60;96.10;;;;;;4909527;29;20798;-72
2022/10/21 04:50:08;;;;;;;10.80;6.90;;;11.60;96.00;;;;;;4917645;29;20058;-72
2022/10/21 04:52:34;;;;;;;9.57;7.38;;;11.60;96.00;;;;;;4928859;29;20047;-72
2022/10/21 04:55:00;;;;;;;10.75;7.05;;;11.60;95.90;;;;;;4914930;28;20043;-72
2022/10/21 04:57:25;;;;;;;11.82;7.35;;;11.60;96.10;;;;;;4926682;29;20032;-72
2022/10/21 04:59:51;;;;;;;10.20;7.03;;;11.50;96.20;;;;;;4912949;29;20036;-72
2022/10/21 05:02:17;;;;;;;12.15;7.75;;;11.60;96.20;;;;;;4909341;29;20038;-72
2022/10/21 05:04:43;;;;;;;12.05;8.00;;;11.50;96.30;;;;;;4917468;29;20028;-67
2022/10/21 05:07:08;;;;;;;12.32;7.35;;;11.50;96.20;;;;;;4914073;29;20064;-67
2022/10/21 05:09:34;;;;;;;11.70;7.53;;;11.50;96.20;;;;;;4912915;29;20039;-67
2022/10/21 05:12:00;;;;;;;13.98;8.52;;;11.50;96.30;;;;;;4919429;29;20039;-72
2022/10/21 05:14:26;;;;;;;11.20;8.10;;;11.50;96.30;;;;;;4920484;29;20043;-72
2022/10/21 05:16:51;;;;;;;9.73;7.38;;;11.50;96.40;;;;;;4921082;29;20480;-73
2022/10/21 05:19:17;;;;;;;10.77;7.57;;;11.50;96.40;;;;;;4925107;29;20066;-73
2022/10/21 05:21:45;;;;;;;10.88;7.68;;;11.50;96.40;;;;;;4918134;29;20036;-72
2022/10/21 05:24:11;;;;;;;12.90;7.93;;;11.50;96.50;;;;;;4920426;29;20139;-72
2022/10/21 05:26:37;;;;;;;12.70;8.02;;;11.50;96.50;;;;;;4926049;29;20190;-72
2022/10/21 05:29:02;;;;;;;11.27;8.07;;;11.60;96.50;;;;;;4924458;29;20089;-72
2022/10/21 05:31:28;;;;;;;10.52;8.23;;;11.60;96.50;;;;;;4921616;28;20035;-72
2022/10/21 05:33:54;;;;;;;12.88;8.32;;;11.50;96.50;;;;;;4920893;29;20114;-73
2022/10/21 05:36:20;;;;;;;11.85;8.10;;;11.60;96.50;;;;;;4923376;29;20468;-72
2022/10/21 05:38:45;;;;;;;13.85;8.05;;;11.60;96.40;;;;;;4922569;29;20039;-72
2022/10/21 05:41:11;;;;;;;11.02;7.75;;;11.60;96.40;;;;;;4921009;28;20035;-73
2022/10/21 05:43:37;;;;;;;13.00;8.82;;;11.60;96.40;;;;;;4920806;29;20031;-72
2022/10/21 05:46:03;;;;;;;12.20;8.40;;;11.60;96.40;;;;;;4913759;29;20124;-72
2022/10/21 05:48:29;;;;;;;14.15;8.35;;;11.60;96.40;;;;;;4927458;29;20771;-72
2022/10/21 05:50:55;;;;;;;13.07;8.15;;;11.60;96.60;;;;;;4917275;29;20040;-72
2022/10/21 05:53:24;;;;;;;8.80;7.05;;;11.70;96.60;;;;;;4915548;29;20043;-72
2022/10/21 05:56:01;;;;;;;11.60;7.75;;;11.60;96.60;;;;;;4923734;29;20028;-72
2022/10/21 05:58:28;;;;;;;13.75;8.10;;;11.70;96.50;;;;;;4919238;29;20023;-72
2022/10/21 06:00:54;;;;;;;11.85;7.50;;;11.70;96.40;;;;;;4916628;28;20035;-71
2022/10/21 06:03:28;;;;;;;12.45;8.05;;;11.70;96.40;;;;;;4920146;29;20035;-72
2022/10/21 06:05:58;;;;;;;11.57;7.55;;;11.70;96.50;;;;;;4918299;29;20586;-73
2022/10/21 06:08:25;;;;;;;12.40;7.72;;;11.70;96.50;;;;;;4920352;29;20027;-73
2022/10/21 06:11:03;;;;;;;14.65;8.45;;;11.80;96.30;;;;;;4924539;29;20038;-72
2022/10/21 06:13:30;;;;;;;11.07;6.85;;;11.80;96.40;;;;;;4913725;29;20028;-73
2022/10/21 06:15:56;;;;;;;12.50;8.07;;;11.80;96.40;;;;;;4911172;29;20492;-72
2022/10/21 06:18:22;;;;;;;11.85;7.47;;;11.80;96.50;;;;;;4920283;29;20165;-72
2022/10/21 06:20:47;;;;;;;11.20;7.82;;;11.80;96.40;;;;;;4910322;29;20054;-72
2022/10/21 06:23:15;;;;;;;11.80;7.85;;;11.80;96.30;;;;;;4915927;29;20031;-73
2022/10/21 06:25:41;;;;;;;11.95;7.75;;;11.80;96.30;;;;;;4921046;29;20028;-72
2022/10/21 06:28:07;;;;;;;11.48;7.30;;;11.80;96.40;;;;;;4923447;29;20189;-72
2022/10/21 06:30:33;;;;;;;12.15;8.45;;;11.80;96.40;;;;;;4920253;29;20028;-72
2022/10/21 06:32:59;;;;;;;14.27;7.95;;;11.80;96.30;;;;;;4921321;29;20059;-65
2022/10/21 06:35:25;;;;;;;11.10;7.63;;;11.80;96.30;;;;;;4910558;29;20486;-73
2022/10/21 06:37:51;;;;;;;11.10;8.48;;;11.90;96.30;;;;;;4922729;29;20036;-66
2022/10/21 06:40:17;;;;;;;13.15;7.85;;;11.90;96.30;;;;;;4923102;28;20551;-66
2022/10/21 06:42:42;;;;;;;11.07;7.55;;;12.00;96.10;;;;;;4926903;29;20039;-67
2022/10/21 06:45:08;;;;;;;13.30;8.35;;;11.90;96.20;;;;;;4921598;29;20114;-66
2022/10/21 06:47:34;;;;;;;12.07;8.15;;;12.00;96.10;;;;;;4925442;29;20027;-67
2022/10/21 06:50:02;;;;;;;11.23;8.00;;;12.00;96.00;;;;;;4912309;29;20047;-67
2022/10/21 06:52:30;;;;;;;13.15;8.15;;;12.10;96.00;;;;;;4921536;29;20039;-71
2022/10/21 06:54:56;;;;;;;11.20;8.02;;;12.10;96.00;;;;;;4916651;29;20043;-71
2022/10/21 06:57:22;;;;;;;11.95;7.53;;;12.10;96.00;;;;;;4922723;29;20031;-68
2022/10/21 06:59:48;;;;;;;10.63;7.80;;;12.20;96.10;;;;;;4926388;28;20035;-69
2022/10/21 07:02:14;;;;;;;10.30;7.30;;;12.20;96.00;;;;;;4926131;28;20036;-69
2022/10/21 07:04:43;;;;;;;9.65;7.45;;;12.20;96.00;;;;;;4923301;29;20019;-69
2022/10/21 07:07:10;;;;;;;11.48;7.72;;;12.20;96.00;;;;;;4920200;29;20716;-69
2022/10/21 07:09:35;;;;;;;10.48;7.43;;;12.30;96.00;;;;;;4919590;28;20664;-69
2022/10/21 07:12:01;;;;;;;12.10;7.43;;;12.30;95.70;;;;;;4912293;29;20040;-69
2022/10/21 07:14:27;;;;;;;12.02;8.18;;;12.30;95.50;;;;;;4919836;29;20039;-69
2022/10/21 07:16:53;;;;;;;11.00;7.25;;;12.30;95.70;;;;;;4915501;29;20110;-68
2022/10/21 07:19:19;;;;;;;9.45;7.43;;;12.20;95.70;;;;;;4923280;29;20712;-69
2022/10/21 07:21:45;;;;;;;10.32;7.50;;;12.30;95.80;;;;;;4918673;29;20028;-69
2022/10/21 07:24:11;;;;;;;10.48;7.55;;;12.30;95.80;;;;;;4929462;29;20139;-68
2022/10/21 07:26:37;;;;;;;11.00;8.05;;;12.40;95.80;;;;;;4921024;29;20464;-69
2022/10/21 07:29:03;;;;;;;9.63;7.68;;;12.50;95.50;;;;;;4917909;29;20091;-69
2022/10/21 07:31:32;;;;;;;12.27;7.75;;;12.50;95.40;;;;;;4904829;29;20047;-68
2022/10/21 07:34:00;;;;;;;11.27;7.30;;;12.50;95.20;;;;;;4917909;28;20509;-68
2022/10/21 07:36:28;;;;;;;11.27;8.32;;;12.40;95.40;;;;;;4920855;29;20110;-69
2022/10/21 07:38:57;;;;;;;13.30;8.20;;;12.50;95.50;;;;;;4920919;29;20074;-69
2022/10/21 07:41:29;;;;;;;10.52;7.38;;;12.50;95.40;;;;;;4927480;29;20032;-68
2022/10/21 07:43:55;;;;;;;8.30;7.00;;;12.50;95.50;;;;;;4921971;29;20027;-69
2022/10/21 07:46:21;;;;;;;13.35;8.27;;;12.60;95.50;;;;;;4921057;29;20645;-69
2022/10/21 07:48:47;;;;;;;11.20;8.27;;;12.70;95.10;;;;;;4919704;28;20032;-69
2022/10/21 07:51:16;;;;;;;11.88;7.65;;;12.70;95.10;;;;;;4922170;28;20044;-70
2022/10/21 07:53:42;;;;;;;11.80;7.28;;;12.80;95.30;;;;;;4922824;28;20040;-68
2022/10/21 07:56:13;;;;;;;14.70;8.23;;;12.80;95.00;;;;;;4912403;29;20040;-69
2022/10/21 07:58:39;;;;;;;14.05;7.93;;;12.90;95.10;;;;;;4916342;29;20055;-70
2022/10/21 08:01:06;;;;;;;12.48;7.68;;;12.90;95.20;;;;;;4922915;29;20686;-70
2022/10/21 08:03:32;;;;;;;13.43;8.40;;;12.90;94.80;;;;;;4923697;29;20023;-72
2022/10/21 08:05:59;;;;;;;12.88;7.68;;;12.90;94.80;;;;;;4918041;29;20079;-70
2022/10/21 08:08:25;;;;;;;12.02;8.00;;;12.90;94.90;;;;;;4915916;29;20035;-72
2022/10/21 08:10:52;;;;;;;13.05;7.32;;;12.90;94.80;;;;;;4920895;29;20063;-71
2022/10/21 08:13:18;;;;;;;11.13;7.85;;;12.90;94.90;;;;;;4919122;29;20024;-70
2022/10/21 08:15:46;;;;;;;11.02;7.40;;;12.90;95.00;;;;;;4913655;29;20087;-70
2022/10/21 08:18:12;;;;;;;11.43;7.30;;;13.00;95.00;;;;;;4917340;29;20775;-71
2022/10/21 08:20:42;;;;;;;11.88;7.63;;;13.10;95.00;;;;;;4922935;29;20118;-70
2022/10/21 08:23:10;;;;;;;11.98;7.45;;;13.10;95.00;;;;;;4920815;29;20098;-70
2022/10/21 08:25:36;;;;;;;10.98;7.57;;;13.20;94.80;;;;;;4919770;29;20484;-69
2022/10/21 08:28:03;;;;;;;12.02;7.25;;;13.20;94.60;;;;;;4915871;29;20485;-70
2022/10/21 08:30:30;;;;;;;13.45;7.38;;;13.20;94.80;;;;;;4918096;29;20111;-73
2022/10/21 08:32:57;;;;;;;11.70;7.28;;;13.30;95.10;;;;;;4918714;29;20040;-69
2022/10/21 08:35:24;;;;;;;16.00;7.22;;;13.40;95.00;;;;;;4923310;29;20039;-69
2022/10/21 08:37:49;;;;;;;12.80;7.47;;;13.70;94.90;;;;;;4922188;29;20030;-69
2022/10/21 08:40:17;;;;;;;10.52;7.50;;;13.80;94.50;;;;;;4921354;29;20027;-70
2022/10/21 08:42:44;;;;;;;8.93;6.35;;;13.90;94.50;;;;;;4915231;29;20072;-66
2022/10/21 08:45:36;;;;;;;12.35;7.47;;;14.00;94.40;;;;;;4921518;29;20035;-70
2022/10/21 08:48:05;;;;;;;15.63;7.07;;;14.20;93.70;;;;;;4907821;29;20134;-70
2022/10/21 08:50:37;;;;;;;11.52;7.32;;;14.30;93.40;;;;;;4917974;29;20039;-71
2022/10/21 08:53:20;;;;;;;9.30;6.25;;;14.30;93.10;;;;;;4918383;29;20062;-69
2022/10/21 08:55:46;;;;;;;19.40;7.35;;;14.30;93.30;;;;;;4921601;29;20031;-71
2022/10/21 08:58:19;;;;;;;9.82;7.10;;;14.40;93.30;;;;;;4921432;29;20055;-72
2022/10/21 09:00:45;;;;;;;8.80;6.00;;;14.50;93.30;;;;;;4919158;29;20415;-71
2022/10/21 09:03:26;;;;;;;12.27;6.97;;;14.60;93.30;;;;;;4918353;29;20051;-66
2022/10/21 09:06:06;;;;;;;12.90;5.95;;;14.80;93.60;;;;;;4918753;29;20059;-67
2022/10/21 09:08:59;;;;;;;13.48;6.20;;;14.90;92.40;;;;;;4917474;29;20068;-66
2022/10/21 09:11:32;;;;;;;11.65;6.57;;;14.90;92.10;;;;;;4921417;29;20028;-66
2022/10/21 09:14:35;;;;;;;10.93;6.88;;;15.00;92.40;;;;;;4927321;29;20036;-66
2022/10/21 09:17:27;;;;;;;7.05;4.95;;;15.00;92.30;;;;;;4915203;29;20035;-66
2022/10/21 09:20:11;;;;;;;7.30;5.22;;;15.20;92.60;;;;;;4904208;29;20054;-67
2022/10/21 09:22:40;;;;;;;9.75;6.18;;;15.20;92.50;;;;;;4916241;29;20652;-67
2022/10/21 09:25:24;;;;;;;8.38;6.20;;;15.30;91.70;;;;;;4928915;29;20042;-67
2022/10/21 09:27:51;;;;;;;11.60;5.97;;;15.30;91.70;;;;;;4926590;29;20035;-67
2022/10/21 09:30:22;;;;;;;8.48;5.60;;;15.20;91.60;;;;;;4910842;29;20028;-66
2022/10/21 09:32:50;;;;;;;12.48;6.53;;;15.20;92.00;;;;;;4920568;29;20099;-64
2022/10/21 09:35:31;;;;;;;13.30;6.57;;;15.20;91.90;;;;;;4924150;29;20035;-66
2022/10/21 09:38:26;;;;;;;11.30;6.63;;;15.20;92.00;;;;;;4916438;29;20051;-71
2022/10/21 09:41:02;;;;;;;9.32;5.82;;;15.20;92.40;;;;;;4915186;29;20734;-72
2022/10/21 09:43:29;;;;;;;7.05;5.30;;;15.20;92.50;;;;;;4913743;29;20138;-70
2022/10/21 09:45:55;;;;;;;8.95;5.63;;;15.20;92.40;;;;;;4910667;29;20559;-71
2022/10/21 09:48:35;;;;;;;8.23;5.15;;;15.30;92.40;;;;;;4918810;29;20036;-71
2022/10/21 09:51:08;;;;;;;8.45;5.68;;;15.30;92.60;;;;;;4919084;29;20138;-71
2022/10/21 09:53:40;;;;;;;12.88;6.78;;;15.40;93.00;;;;;;4919950;28;20449;-66
2022/10/21 09:56:13;;;;;;;9.63;5.63;;;15.60;92.70;;;;;;4919869;29;20528;-65
2022/10/21 09:58:44;;;;;;;10.50;6.15;;;15.80;92.30;;;;;;4915067;29;20031;-65
2022/10/21 10:01:19;;;;;;;7.20;5.68;;;15.90;91.90;;;;;;4920513;29;20035;-66
2022/10/21 10:03:48;;;;;;;7.63;5.43;;;16.10;91.30;;;;;;4918001;29;20028;-71
2022/10/21 10:06:36;;;;;;;5.93;5.15;;;16.10;91.00;;;;;;4910793;29;20346;-71
2022/10/21 10:09:27;;;;;;;7.15;5.75;;;16.10;91.50;;;;;;4922424;29;20032;-71
2022/10/21 10:12:10;;;;;;;9.07;5.22;;;16.30;90.70;;;;;;4923202;29;20121;-72
2022/10/21 10:14:41;;;;;;;9.07;5.82;;;16.60;90.60;;;;;;4920797;29;20036;-70
2022/10/21 10:17:22;;;;;;;8.43;5.22;;;16.90;88.40;;;;;;4921326;29;20528;-71
2022/10/21 10:20:03;;;;;;;7.93;5.60;;;17.00;88.50;;;;;;4920600;29;20142;-70
2022/10/21 10:22:43;;;;;;;11.02;5.75;;;17.40;87.20;;;;;;4926294;29;20032;-70
2022/10/21 10:25:12;;;;;;;5.82;4.80;;;17.50;86.80;;;;;;4922650;29;20516;-71
2022/10/21 10:27:58;;;;;;;6.95;5.22;;;17.70;85.90;;;;;;4913177;29;20147;-73
2022/10/21 10:30:25;;;;;;;;;;;17.80;85.20;;;;;;4921277;29;20047;-70
2022/10/21 10:32:53;;;;;;;8.98;4.93;;;17.80;84.40;;;;;;4921028;29;19915;-69
2022/10/21 10:35:27;;;;;;;8.90;5.00;;;17.80;84.90;;;;;;4918286;29;20395;-70
2022/10/21 10:37:53;;;;;;;8.25;4.85;;;17.80;85.10;;;;;;4911990;29;20024;-69
2022/10/21 10:40:25;;;;;;;7.95;5.05;;;18.30;83.60;;;;;;4922414;29;20051;-69
2022/10/21 10:42:59;;;;;;;9.55;4.57;;;19.20;81.30;;;;;;4915198;29;20411;-64
2022/10/21 10:45:25;;;;;;;9.65;5.05;;;20.10;76.40;;;;;;4918010;29;20151;-64
2022/10/21 10:47:57;;;;;;;9.77;5.13;;;20.60;73.00;;;;;;4921542;29;20028;-64
2022/10/21 10:50:46;;;;;;;5.70;4.32;;;20.50;71.80;;;;;;4917088;28;20076;-64
2022/10/21 10:53:22;;;;;;;6.47;4.78;;;20.70;73.70;;;;;;4918442;29;20476;-64
2022/10/21 10:55:57;;;;;;;10.38;5.40;;;21.10;71.00;;;;;;4916700;29;20055;-64
2022/10/21 10:58:27;;;;;;;7.05;5.13;;;21.20;68.90;;;;;;4906879;29;20059;-64
2022/10/21 11:00:58;;;;;;;8.18;4.95;;;20.40;70.20;;;;;;4918440;28;20028;-65
2022/10/21 11:03:31;;;;;;;9.65;5.45;;;19.60;73.50;;;;;;4915668;29;20116;-64
2022/10/21 11:06:06;;;;;;;9.07;5.32;;;19.00;76.30;;;;;;4907509;29;20036;-69
2022/10/21 11:08:40;;;;;;;9.18;5.47;;;18.40;78.20;;;;;;4916270;29;20164;-68
2022/10/21 11:11:12;;;;;;;7.78;5.00;;;18.10;80.00;;;;;;4921064;29;20127;-64
2022/10/21 11:13:39;;;;;;;11.57;5.22;;;17.90;81.00;;;;;;4914066;29;20484;-69
2022/10/21 11:16:15;;;;;;;8.73;4.97;;;17.70;82.10;;;;;;4914554;29;20074;-69
2022/10/21 11:19:12;;;;;;;9.27;5.18;;;17.60;82.50;;;;;;4928099;29;20027;-68
2022/10/21 11:21:49;;;;;;;6.80;4.70;;;17.40;83.60;;;;;;4910571;29;20031;-69
2022/10/21 11:24:33;;;;;;;7.75;4.80;;;17.40;84.40;;;;;;4922076;29;20035;-69
2022/10/21 11:27:42;;;;;;;7.00;4.78;;;17.50;84.90;;;;;;4916498;29;20799;-69
2022/10/21 11:30:10;;;;;;;9.98;5.05;;;17.50;85.70;;;;;;4916604;29;20047;-70
2022/10/21 11:32:45;;;;;;;9.27;5.28;;;17.50;84.30;;;;;;4919253;29;20106;-71
2022/10/21 11:35:13;;;;;;;7.30;5.50;;;17.50;85.10;;;;;;4916316;29;20541;-71
2022/10/21 11:38:08;;;;;;;10.73;5.78;;;17.50;84.70;;;;;;4914050;29;20050;-70
2022/10/21 11:40:39;;;;;;;7.25;5.15;;;17.50;84.20;;;;;;4911502;29;20040;-73
2022/10/21 11:43:40;;;;;;;10.48;5.22;;;17.50;85.80;;;;;;4915782;29;20040;-70
2022/10/21 11:46:10;;;;;;;8.82;5.20;;;17.60;85.10;;;;;;4917645;29;20044;-71
2022/10/21 11:48:53;;;;;;;18.70;5.35;;;17.70;84.50;;;;;;4916296;29;20131;-65
2022/10/21 11:51:21;;;;;;;9.00;6.60;;;17.70;84.10;;;;;;4917565;29;20032;-66
2022/10/21 11:54:12;;;;;;;8.07;4.53;;;17.80;84.70;;;;;;4923390;29;20043;-66
2022/10/21 11:56:57;;;;;;;8.73;4.90;;;17.90;85.30;;;;;;4913052;29;20768;-68
2022/10/21 11:59:37;;;;;;;8.27;5.13;;;17.90;84.10;;;;;;4916255;29;20066;-63
2022/10/21 12:02:28;;;;;;;7.32;5.03;;;17.90;84.00;;;;;;4909627;29;20519;-66
2022/10/21 12:05:03;;;;;;;6.57;4.90;;;17.90;82.90;;;;;;4920293;29;20031;-63
2022/10/21 12:07:32;;;;;;;8.68;4.60;;;17.80;82.40;;;;;;4918449;29;20154;-63
2022/10/21 12:10:05;;;;;;;9.48;5.07;;;17.80;83.20;;;;;;4915748;29;20548;-68
2022/10/21 12:12:35;;;;;;;10.98;5.45;;;17.70;83.30;;;;;;4913433;29;20032;-69
2022/10/21 12:15:10;;;;;;;8.57;5.32;;;17.60;83.50;;;;;;4925803;29;20053;-64
2022/10/21 12:17:36;;;;;;;8.80;5.10;;;17.60;83.70;;;;;;4918974;29;20536;-64
2022/10/21 12:20:14;;;;;;;13.77;6.63;;;17.50;83.00;;;;;;4924593;29;20167;-63
2022/10/21 12:22:40;;;;;;;16.13;6.75;;;17.40;83.60;;;;;;4916313;29;20393;-63
2022/10/21 12:25:23;;;;;;;10.32;6.30;;;17.20;83.90;;;;;;4919289;29;20836;-63
2022/10/21 12:28:10;;;;;;;13.30;7.10;;;17.20;84.00;;;;;;4916558;29;20115;-63
2022/10/21 12:31:00;;;;;;;9.52;6.75;;;17.00;83.70;;;;;;4927165;29;20044;-63
2022/10/21 12:33:39;;;;;;;9.10;5.05;;;16.90;84.20;;;;;;4911377;29;20051;-63
2022/10/21 12:36:37;;;;;;;9.68;6.68;;;16.80;85.70;;;;;;4920552;29;20452;-63
2022/10/21 12:39:03;;;;;;;9.23;5.97;;;16.80;85.00;;;;;;4920159;29;20795;-62
2022/10/21 12:41:41;;;;;;;8.65;5.75;;;16.80;85.70;;;;;;4918477;29;20123;-62
2022/10/21 12:44:22;;;;;;;9.30;5.53;;;16.80;85.00;;;;;;4928340;29;20039;-67
2022/10/21 12:46:54;;;;;;;10.10;6.45;;;16.80;85.90;;;;;;4915335;29;20117;-67
2022/10/21 12:49:32;;;;;;;9.80;6.53;;;16.80;85.60;;;;;;4911831;29;20122;-63
2022/10/21 12:52:12;;;;;;;13.85;6.40;;;16.80;85.20;;;;;;4918537;29;20117;-62
2022/10/21 12:54:56;;;;;;;10.02;5.50;;;16.70;85.20;;;;;;4907256;29;20410;-62
2022/10/21 12:57:33;;;;;;;9.90;5.75;;;16.70;85.50;;;;;;4925468;29;20032;-63
2022/10/21 13:00:20;;;;;;;12.13;6.25;;;16.70;85.70;;;;;;4914362;29;20040;-64
2022/10/21 13:03:03;;;;;;;10.05;6.53;;;16.70;85.60;;;;;;4917777;29;20394;-62
2022/10/21 13:05:38;;;;;;;9.73;5.95;;;16.80;85.90;;;;;;4911715;29;20150;-62